Terminal Aerodrome Forecast
Issued by NWS

Home | Current Version | Previous Version | Text Only | Print | Product List | Glossary On
Versions: 1 2 3 4 5 6 7 8 9 10 11 12 13 14 15 16 17 18 19 20 21
620
FTUS43 KILX 302327
TAFDEC
TAF
KDEC 302327Z 0100/0124 36009KT P6SM VCSH SCT015 BKN035
     FM010200 36008KT P6SM VCSH SCT010 OVC025
     FM010500 34005KT 4SM -DZ BR SCT003 OVC008
     FM010900 34004KT 1SM -DZ BR OVC003
     FM011700 32005KT P6SM BKN015 OVC045=

USA.gov is the U.S. government's official web portal to all federal, state and local government web resources and services.